Time;durP1;ratioP1;P1;durP2;ratioP2;P2;SDS_P1;SDS_P2;PMS_P1;PMS_P2;Temp;Humidity;BMP_temperature;BMP_pressure;BME280_temperature;BME280_humidity;BME280_pressure;Samples;Min_cycle;Max_cycle;Signal;HPM_P1;HPM_P2
2023/06/02 00:01:15;;;;;;;11.57;2.97;;;11.90;99.90;;;;;;5052399;28;20741;-48
2023/06/02 00:03:44;;;;;;;16.60;3.43;;;11.80;99.90;;;;;;5052627;28;20222;-50
2023/06/02 00:06:15;;;;;;;13.27;2.90;;;11.90;99.90;;;;;;5046054;28;20698;-51
2023/06/02 00:08:43;;;;;;;16.20;3.53;;;12.00;99.90;;;;;;5052685;28;20240;-50
2023/06/02 00:11:13;;;;;;;15.03;3.80;;;12.00;99.90;;;;;;5052645;28;20630;-51
2023/06/02 00:13:44;;;;;;;14.13;3.23;;;11.90;99.90;;;;;;5052830;28;20310;-50
2023/06/02 00:16:12;;;;;;;11.47;3.30;;;11.90;99.90;;;;;;5051026;28;20671;-50
2023/06/02 00:18:40;;;;;;;13.90;3.40;;;12.10;99.90;;;;;;5049329;28;20228;-52
2023/06/02 00:21:08;;;;;;;17.23;3.57;;;12.10;99.90;;;;;;5047862;28;20323;-51
2023/06/02 00:23:37;;;;;;;18.07;3.63;;;12.10;99.90;;;;;;5052435;28;20768;-51
2023/06/02 00:26:05;;;;;;;12.57;3.67;;;12.10;99.90;;;;;;5052773;28;20227;-50
2023/06/02 00:28:33;;;;;;;16.50;3.23;;;12.10;99.90;;;;;;5052326;28;20250;-48
2023/06/02 00:31:02;;;;;;;16.03;3.70;;;12.00;99.90;;;;;;5052123;28;20783;-50
2023/06/02 00:33:31;;;;;;;18.40;4.00;;;12.20;99.90;;;;;;5051119;28;20230;-50
2023/06/02 00:35:59;;;;;;;14.13;3.03;;;12.00;99.90;;;;;;5048610;28;20233;-50
2023/06/02 00:38:27;;;;;;;12.93;4.00;;;12.20;99.90;;;;;;5051230;28;20253;-50
2023/06/02 00:40:55;;;;;;;12.77;3.37;;;12.10;99.90;;;;;;5052338;28;20317;-49
2023/06/02 00:43:23;;;;;;;13.93;3.23;;;12.10;99.90;;;;;;5051172;28;20263;-50
2023/06/02 00:45:51;;;;;;;16.13;3.80;;;12.10;99.90;;;;;;5050460;28;20238;-47
2023/06/02 00:48:20;;;;;;;12.53;3.27;;;12.10;99.90;;;;;;5049523;28;20224;-51
2023/06/02 00:50:48;;;;;;;15.33;3.27;;;12.20;99.90;;;;;;5046346;28;20670;-50
2023/06/02 00:53:17;;;;;;;18.40;4.23;;;12.20;99.90;;;;;;5052307;28;20669;-51
2023/06/02 00:55:45;;;;;;;16.90;3.70;;;12.20;99.90;;;;;;5054622;28;20706;-48
2023/06/02 00:58:16;;;;;;;12.80;3.20;;;12.00;99.90;;;;;;5056193;28;20224;-51
2023/06/02 01:00:44;;;;;;;18.20;3.70;;;12.00;99.90;;;;;;5055246;28;20337;-50
2023/06/02 01:03:21;;;;;;;17.57;3.83;;;12.00;99.90;;;;;;5056030;28;20679;-48
2023/06/02 01:05:55;;;;;;;13.83;3.77;;;12.00;99.90;;;;;;5055177;28;20229;-51
2023/06/02 01:08:24;;;;;;;12.37;3.23;;;12.00;99.90;;;;;;5055627;28;20280;-50
2023/06/02 01:10:52;;;;;;;15.87;3.33;;;12.10;99.90;;;;;;5055833;28;20225;-51
2023/06/02 01:13:20;;;;;;;15.77;3.83;;;12.20;99.90;;;;;;5056066;28;20314;-50
2023/06/02 01:15:49;;;;;;;14.37;3.53;;;12.00;99.90;;;;;;5053865;28;20286;-51
2023/06/02 01:18:25;;;;;;;13.93;3.43;;;12.10;99.90;;;;;;5055631;28;20269;-51
2023/06/02 01:20:57;;;;;;;20.83;3.77;;;12.10;99.90;;;;;;5052777;28;20235;-48
2023/06/02 01:23:30;;;;;;;11.20;3.13;;;12.00;99.90;;;;;;5055544;28;20227;-51
2023/06/02 01:26:00;;;;;;;18.90;3.70;;;12.00;99.90;;;;;;5051427;28;20259;-50
2023/06/02 01:28:29;;;;;;;18.07;3.33;;;12.00;99.90;;;;;;5035205;28;20234;-50
2023/06/02 01:31:07;;;;;;;17.10;3.93;;;12.10;99.90;;;;;;5054256;28;20349;-48
2023/06/02 01:33:42;;;;;;;15.80;3.33;;;12.10;99.90;;;;;;5055543;28;20238;-51
2023/06/02 01:36:10;;;;;;;17.20;3.27;;;12.20;99.90;;;;;;5054303;28;20233;-50
2023/06/02 01:38:40;;;;;;;15.87;3.77;;;12.40;99.90;;;;;;5053910;28;20314;-50
2023/06/02 01:41:12;;;;;;;14.27;3.40;;;12.40;99.90;;;;;;5054979;28;20321;-48
2023/06/02 01:43:41;;;;;;;14.53;3.97;;;12.40;99.90;;;;;;5055187;28;20231;-50
2023/06/02 01:46:11;;;;;;;18.60;3.77;;;12.30;99.90;;;;;;5051685;28;20227;-52
2023/06/02 01:48:40;;;;;;;18.60;3.87;;;12.20;99.90;;;;;;5043783;28;20596;-51
2023/06/02 01:51:08;;;;;;;17.73;3.87;;;12.20;99.90;;;;;;5054960;28;20281;-48
2023/06/02 01:53:36;;;;;;;12.80;3.60;;;12.20;99.90;;;;;;5055095;28;20246;-52
2023/06/02 01:56:05;;;;;;;13.93;4.13;;;12.30;99.90;;;;;;5053703;28;20272;-51
2023/06/02 01:58:36;;;;;;;10.20;3.30;;;12.40;99.90;;;;;;5053586;28;20261;-51
2023/06/02 02:01:04;;;;;;;14.23;3.67;;;12.30;99.90;;;;;;5052493;28;20308;-50
2023/06/02 02:03:32;;;;;;;10.73;3.03;;;12.20;99.90;;;;;;5054742;28;20235;-52
2023/06/02 02:06:02;;;;;;;14.70;3.60;;;12.10;99.90;;;;;;5043604;28;20235;-51
2023/06/02 02:08:31;;;;;;;16.10;3.70;;;12.40;99.90;;;;;;5050660;28;20235;-51
2023/06/02 02:10:59;;;;;;;16.43;3.40;;;12.60;99.90;;;;;;5055085;28;20583;-50
2023/06/02 02:13:27;;;;;;;13.53;3.23;;;12.70;99.90;;;;;;5054919;28;20224;-51
2023/06/02 02:15:57;;;;;;;15.00;3.70;;;12.40;99.90;;;;;;5053040;28;20224;-50
2023/06/02 02:18:25;;;;;;;11.13;2.97;;;12.20;99.90;;;;;;5054432;28;20220;-48
2023/06/02 02:20:53;;;;;;;13.37;3.30;;;12.30;99.90;;;;;;5049384;28;20568;-49
2023/06/02 02:23:21;;;;;;;12.83;2.97;;;12.40;99.90;;;;;;5053877;28;20258;-48
2023/06/02 02:25:49;;;;;;;13.43;3.20;;;12.60;99.90;;;;;;5054453;28;20317;-52
2023/06/02 02:28:17;;;;;;;10.67;2.93;;;12.50;99.90;;;;;;5054437;28;20262;-48
2023/06/02 02:30:46;;;;;;;12.40;3.03;;;12.60;99.90;;;;;;5052611;28;20267;-48
2023/06/02 02:33:16;;;;;;;13.60;3.30;;;12.60;99.90;;;;;;5054389;28;20210;-47
2023/06/02 02:35:44;;;;;;;13.73;3.17;;;12.50;99.90;;;;;;5052402;28;20235;-51
2023/06/02 02:38:13;;;;;;;13.17;3.50;;;12.60;99.90;;;;;;5054209;28;20219;-50
2023/06/02 02:40:41;;;;;;;11.97;3.00;;;12.60;99.90;;;;;;5043200;28;20227;-49
2023/06/02 02:43:09;;;;;;;11.10;2.93;;;12.60;99.90;;;;;;5044573;28;20253;-50
2023/06/02 02:45:37;;;;;;;10.63;3.10;;;12.50;99.90;;;;;;5051342;28;20262;-51
2023/06/02 02:48:07;;;;;;;17.50;4.27;;;12.30;99.90;;;;;;5046370;28;20308;-46
2023/06/02 02:50:37;;;;;;;11.60;3.10;;;12.10;99.90;;;;;;5047508;28;20257;-48
2023/06/02 02:53:06;;;;;;;15.40;3.33;;;12.00;99.90;;;;;;5069472;28;20227;-46
2023/06/02 02:55:34;;;;;;;13.90;4.00;;;12.00;99.90;;;;;;5053826;28;20218;-50
2023/06/02 02:58:02;;;;;;;14.23;3.23;;;11.90;99.90;;;;;;5052532;28;20657;-46
2023/06/02 03:00:32;;;;;;;11.70;3.23;;;11.90;99.90;;;;;;5052719;28;20245;-47
2023/06/02 03:03:01;;;;;;;13.03;3.83;;;11.80;99.90;;;;;;5052346;28;20226;-48
2023/06/02 03:05:29;;;;;;;14.43;3.53;;;11.80;99.90;;;;;;5053326;28;20223;-48
2023/06/02 03:08:01;;;;;;;15.03;3.40;;;11.70;99.90;;;;;;5053762;28;20556;-49
2023/06/02 03:10:30;;;;;;;11.97;3.50;;;11.60;99.90;;;;;;5052472;28;20230;-51
2023/06/02 03:12:58;;;;;;;14.03;3.83;;;11.60;99.90;;;;;;5049331;28;20240;-50
2023/06/02 03:15:27;;;;;;;13.60;3.70;;;11.50;99.90;;;;;;5046658;28;20223;-50
2023/06/02 03:17:58;;;;;;;18.37;4.20;;;11.40;99.90;;;;;;5051690;28;20227;-48
2023/06/02 03:20:26;;;;;;;10.33;2.67;;;11.40;99.90;;;;;;5051460;28;20251;-47
2023/06/02 03:22:55;;;;;;;13.90;3.03;;;11.40;99.90;;;;;;5034559;28;20715;-47
2023/06/02 03:25:25;;;;;;;10.97;2.93;;;11.40;99.90;;;;;;5032236;28;20281;-48
2023/06/02 03:27:56;;;;;;;15.77;4.43;;;11.40;99.90;;;;;;5032256;28;20248;-47
2023/06/02 03:30:24;;;;;;;13.23;3.67;;;11.40;99.90;;;;;;5031831;28;20227;-48
2023/06/02 03:32:57;;;;;;;12.73;3.77;;;11.40;99.90;;;;;;5033709;28;20238;-49
2023/06/02 03:35:27;;;;;;;12.87;3.83;;;11.50;99.90;;;;;;5042817;28;20710;-47
2023/06/02 03:37:56;;;;;;;16.87;3.93;;;11.50;99.90;;;;;;5052157;28;20231;-46
2023/06/02 03:40:27;;;;;;;18.67;4.40;;;11.60;99.90;;;;;;5047556;28;20257;-48
2023/06/02 03:42:56;;;;;;;15.60;4.33;;;11.60;99.90;;;;;;5040789;28;20227;-46
2023/06/02 03:45:24;;;;;;;16.23;3.83;;;11.60;99.90;;;;;;5059527;28;20591;-47
2023/06/02 03:47:53;;;;;;;18.83;3.90;;;11.70;99.90;;;;;;5042960;28;20234;-48
2023/06/02 03:50:23;;;;;;;13.60;4.20;;;11.80;99.90;;;;;;5047855;28;20223;-47
2023/06/02 03:52:51;;;;;;;12.63;4.43;;;11.70;99.90;;;;;;5042355;28;20231;-47
2023/06/02 03:55:20;;;;;;;16.63;3.90;;;11.80;99.90;;;;;;5041757;28;20277;-48
2023/06/02 03:57:49;;;;;;;13.93;4.00;;;11.70;99.90;;;;;;5040515;28;20297;-48
2023/06/02 04:00:18;;;;;;;12.80;4.33;;;11.70;99.90;;;;;;5040030;28;20578;-49
2023/06/02 04:02:51;;;;;;;17.00;4.40;;;11.70;99.90;;;;;;5057638;28;20239;-46
2023/06/02 04:05:20;;;;;;;14.03;4.20;;;12.00;99.90;;;;;;5041221;28;20235;-47
2023/06/02 04:07:49;;;;;;;16.50;4.77;;;12.00;99.90;;;;;;5042403;28;20325;-46
2023/06/02 04:10:18;;;;;;;18.60;4.57;;;11.90;99.90;;;;;;5041646;28;20399;-51
2023/06/02 04:12:46;;;;;;;17.17;4.10;;;11.90;99.90;;;;;;5042650;28;20224;-47
2023/06/02 04:15:16;;;;;;;14.73;4.10;;;12.00;99.90;;;;;;5042338;28;20280;-48
2023/06/02 04:17:45;;;;;;;12.73;4.30;;;11.90;99.90;;;;;;5042514;28;20725;-46
2023/06/02 04:20:13;;;;;;;16.37;4.20;;;11.90;99.90;;;;;;5045063;28;20277;-48
2023/06/02 04:22:43;;;;;;;14.83;4.00;;;12.00;99.90;;;;;;5041891;28;20238;-49
2023/06/02 04:25:11;;;;;;;19.63;5.23;;;12.10;99.90;;;;;;5041933;28;20228;-51
2023/06/02 04:27:39;;;;;;;17.93;4.30;;;12.10;99.90;;;;;;5039768;28;20231;-48
2023/06/02 04:30:09;;;;;;;16.53;4.67;;;12.20;99.90;;;;;;5047289;28;20234;-47
2023/06/02 04:32:40;;;;;;;15.20;4.40;;;12.30;99.90;;;;;;5047812;28;20246;-49
2023/06/02 04:35:09;;;;;;;16.07;5.07;;;12.20;99.90;;;;;;5052222;28;20234;-45
2023/06/02 04:37:38;;;;;;;18.33;4.90;;;12.30;99.90;;;;;;5049208;28;20577;-47
2023/06/02 04:40:08;;;;;;;17.97;4.87;;;12.40;99.90;;;;;;5047775;28;20266;-47
2023/06/02 04:42:38;;;;;;;14.97;4.27;;;12.40;99.90;;;;;;5046793;28;20650;-47
2023/06/02 04:45:10;;;;;;;16.33;4.53;;;12.40;99.90;;;;;;5049164;28;20214;-47
2023/06/02 04:47:41;;;;;;;17.73;4.43;;;12.50;99.90;;;;;;5042930;28;20231;-46
2023/06/02 04:50:10;;;;;;;18.83;5.10;;;12.50;99.90;;;;;;5054280;28;20254;-45
2023/06/02 04:52:40;;;;;;;13.37;4.43;;;12.60;99.90;;;;;;5055338;28;20249;-48
2023/06/02 04:55:10;;;;;;;17.60;4.97;;;12.70;99.90;;;;;;5057642;28;20231;-47
2023/06/02 04:57:41;;;;;;;16.30;4.57;;;12.80;99.90;;;;;;5055322;28;20241;-47
2023/06/02 05:00:11;;;;;;;19.47;5.03;;;13.00;99.90;;;;;;5048190;28;20235;-45
2023/06/02 05:02:41;;;;;;;14.33;4.50;;;13.10;99.90;;;;;;5047522;28;20677;-45
2023/06/02 05:05:10;;;;;;;18.67;4.60;;;13.30;99.90;;;;;;5049108;28;20254;-46
2023/06/02 05:07:40;;;;;;;19.67;4.77;;;13.40;99.90;;;;;;5050035;28;20236;-45
2023/06/02 05:10:09;;;;;;;20.37;5.33;;;13.60;99.90;;;;;;5054008;28;20310;-46
2023/06/02 05:12:41;;;;;;;18.80;4.60;;;13.70;99.90;;;;;;5046093;28;20680;-47
2023/06/02 05:15:10;;;;;;;16.17;3.93;;;13.90;99.90;;;;;;5050062;28;20695;-46
2023/06/02 05:17:38;;;;;;;17.50;4.50;;;14.00;99.90;;;;;;5057040;28;20772;-45
2023/06/02 05:20:10;;;;;;;15.97;4.53;;;14.20;99.90;;;;;;5059433;28;20647;-46
2023/06/02 05:22:39;;;;;;;16.20;4.40;;;14.20;99.90;;;;;;5051616;28;20232;-45
2023/06/02 05:25:10;;;;;;;17.03;4.50;;;14.30;99.90;;;;;;5058667;28;20704;-47
2023/06/02 05:27:40;;;;;;;14.50;4.10;;;14.40;99.90;;;;;;5058502;28;20243;-47
2023/06/02 05:30:09;;;;;;;14.83;4.17;;;14.50;99.90;;;;;;5057371;28;20679;-47
2023/06/02 05:32:39;;;;;;;14.07;4.03;;;14.60;99.90;;;;;;5056938;28;20247;-47
2023/06/02 05:35:10;;;;;;;13.03;3.87;;;14.90;99.90;;;;;;5057165;28;20269;-46
2023/06/02 05:37:39;;;;;;;12.47;3.50;;;15.00;99.90;;;;;;5056407;28;20231;-46
2023/06/02 05:40:09;;;;;;;13.17;4.00;;;15.20;99.90;;;;;;5055161;28;20718;-51
2023/06/02 05:42:39;;;;;;;13.30;3.87;;;15.30;99.90;;;;;;5043290;28;20255;-46
2023/06/02 05:45:08;;;;;;;12.70;4.00;;;15.30;99.90;;;;;;5044016;28;20232;-46
2023/06/02 05:47:38;;;;;;;14.37;3.67;;;15.40;99.90;;;;;;5050351;28;20319;-46
2023/06/02 05:50:07;;;;;;;7.93;3.30;;;15.60;99.90;;;;;;5051667;28;20310;-46
2023/06/02 05:52:39;;;;;;;10.40;3.20;;;15.70;99.90;;;;;;5041584;28;20232;-48
2023/06/02 05:55:09;;;;;;;11.43;3.60;;;16.00;99.90;;;;;;5051031;28;20593;-45
2023/06/02 05:57:37;;;;;;;11.60;3.40;;;16.00;99.90;;;;;;5044103;28;20220;-46
2023/06/02 06:00:11;;;;;;;8.07;2.90;;;15.90;99.90;;;;;;5038883;28;20232;-46
2023/06/02 06:02:42;;;;;;;11.30;3.30;;;16.20;99.90;;;;;;5037213;28;20322;-47
2023/06/02 06:05:17;;;;;;;11.73;3.00;;;16.60;99.90;;;;;;5032613;28;20224;-48
2023/06/02 06:07:47;;;;;;;9.20;3.03;;;17.00;99.90;;;;;;5028383;28;20724;-47
2023/06/02 06:10:16;;;;;;;8.43;3.00;;;17.00;99.90;;;;;;5024959;28;20707;-46
2023/06/02 06:12:45;;;;;;;7.77;2.83;;;17.20;99.90;;;;;;5024940;28;20224;-47
2023/06/02 06:15:13;;;;;;;7.80;3.10;;;17.20;99.90;;;;;;5027273;28;20236;-48
2023/06/02 06:17:51;;;;;;;7.13;2.60;;;17.30;99.90;;;;;;5026350;28;20232;-47
2023/06/02 06:20:20;;;;;;;8.27;3.23;;;17.30;99.90;;;;;;5026814;28;20633;-48
2023/06/02 06:22:50;;;;;;;7.90;2.57;;;17.50;99.90;;;;;;5024853;28;20266;-47
2023/06/02 06:25:20;;;;;;;7.10;2.87;;;17.60;99.90;;;;;;5028186;28;20216;-47
2023/06/02 06:27:50;;;;;;;6.37;2.83;;;17.20;99.90;;;;;;5025965;28;20813;-49
2023/06/02 06:30:21;;;;;;;6.93;2.57;;;16.90;99.90;;;;;;5036929;28;20641;-49
2023/06/02 06:32:51;;;;;;;7.87;2.70;;;16.60;99.90;;;;;;5023348;28;20841;-47
2023/06/02 06:35:20;;;;;;;6.10;2.63;;;16.30;99.90;;;;;;5027708;28;20708;-48
2023/06/02 06:37:49;;;;;;;8.93;3.20;;;16.30;99.90;;;;;;5030457;28;20337;-51
2023/06/02 06:40:18;;;;;;;8.33;3.30;;;16.20;99.90;;;;;;5028729;28;21091;-50
2023/06/02 06:42:47;;;;;;;7.63;2.63;;;16.20;99.90;;;;;;5039361;28;20254;-51
2023/06/02 06:45:24;;;;;;;7.00;2.77;;;16.40;99.90;;;;;;5025845;28;20251;-49
2023/06/02 06:47:54;;;;;;;5.87;2.87;;;16.50;99.90;;;;;;5025473;28;21421;-52
2023/06/02 06:50:22;;;;;;;8.63;3.50;;;16.40;99.90;;;;;;5024706;28;20257;-49
2023/06/02 06:52:51;;;;;;;6.00;3.10;;;16.20;99.90;;;;;;5023354;28;20224;-48
2023/06/02 06:55:20;;;;;;;11.77;4.27;;;16.10;99.90;;;;;;5027000;28;20598;-48
2023/06/02 06:57:48;;;;;;;10.73;3.93;;;16.10;99.90;;;;;;5026067;28;20648;-50
2023/06/02 07:00:17;;;;;;;9.53;3.90;;;15.90;99.90;;;;;;5025863;28;20217;-49
2023/06/02 07:02:48;;;;;;;10.50;3.90;;;15.90;99.90;;;;;;5023998;28;20323;-49
2023/06/02 07:05:16;;;;;;;10.57;3.83;;;15.90;99.90;;;;;;5026993;28;20227;-48
2023/06/02 07:07:44;;;;;;;9.87;3.70;;;15.90;99.90;;;;;;5026119;28;20239;-46
2023/06/02 07:10:14;;;;;;;8.43;3.73;;;15.90;99.90;;;;;;5026691;28;20304;-47
2023/06/02 07:12:42;;;;;;;13.30;4.27;;;15.80;99.90;;;;;;5022830;28;20232;-48
2023/06/02 07:15:11;;;;;;;10.53;4.10;;;15.70;99.90;;;;;;5025424;28;20307;-51
2023/06/02 07:17:40;;;;;;;9.37;3.90;;;15.60;99.90;;;;;;5025059;28;20231;-48
2023/06/02 07:20:10;;;;;;;9.73;4.30;;;15.70;99.90;;;;;;5027670;28;21538;-47
2023/06/02 07:22:39;;;;;;;12.87;4.07;;;15.70;99.90;;;;;;5025018;28;20708;-50
2023/06/02 07:25:08;;;;;;;10.67;4.20;;;15.70;99.90;;;;;;5024449;28;20239;-47
2023/06/02 07:27:38;;;;;;;8.63;4.30;;;15.80;99.90;;;;;;5027535;28;20778;-48
2023/06/02 07:30:08;;;;;;;9.30;4.10;;;16.00;99.90;;;;;;5030057;28;20225;-47
2023/06/02 07:32:36;;;;;;;9.07;3.97;;;16.10;99.90;;;;;;5026728;28;20253;-51
2023/06/02 07:35:04;;;;;;;12.67;4.17;;;16.50;99.90;;;;;;5028951;28;20231;-49
2023/06/02 07:37:32;;;;;;;10.13;3.93;;;17.00;99.90;;;;;;5031216;28;20602;-47
2023/06/02 07:40:00;;;;;;;9.40;4.33;;;17.20;99.90;;;;;;5027263;28;20294;-49
2023/06/02 07:42:29;;;;;;;12.27;4.27;;;17.30;99.90;;;;;;5024119;28;20235;-49
2023/06/02 07:44:58;;;;;;;11.23;4.50;;;17.20;99.90;;;;;;5026746;28;20597;-47
2023/06/02 07:47:26;;;;;;;10.23;4.00;;;17.00;99.90;;;;;;5028881;28;20575;-45
2023/06/02 07:49:54;;;;;;;8.77;4.33;;;17.00;99.90;;;;;;5028670;28;20711;-47
2023/06/02 07:52:23;;;;;;;9.43;4.27;;;17.00;99.90;;;;;;5024875;28;20218;-47
2023/06/02 07:54:51;;;;;;;8.50;3.97;;;16.80;99.90;;;;;;5026566;28;20580;-45
2023/06/02 07:57:19;;;;;;;9.07;3.73;;;16.80;99.90;;;;;;5038982;28;20223;-48
2023/06/02 07:59:49;;;;;;;9.53;3.60;;;16.90;99.90;;;;;;5044639;28;20637;-49
2023/06/02 08:02:18;;;;;;;8.83;4.20;;;16.90;99.90;;;;;;5042677;28;20236;-47
2023/06/02 08:04:46;;;;;;;9.10;3.80;;;16.80;99.90;;;;;;5043631;28;20242;-50
2023/06/02 08:07:15;;;;;;;11.20;4.00;;;16.70;99.90;;;;;;5042460;28;20306;-47
2023/06/02 08:09:43;;;;;;;9.33;3.77;;;16.60;99.90;;;;;;5041653;28;20225;-49
2023/06/02 08:12:11;;;;;;;7.70;3.73;;;16.50;99.90;;;;;;5042921;28;20262;-46
2023/06/02 08:14:39;;;;;;;9.80;4.30;;;16.40;99.90;;;;;;5045202;28;20230;-51
2023/06/02 08:17:10;;;;;;;12.03;4.47;;;16.60;99.90;;;;;;5044859;28;20227;-48
2023/06/02 08:19:39;;;;;;;11.03;4.53;;;17.00;99.90;;;;;;5039162;28;20313;-46
2023/06/02 08:22:09;;;;;;;8.10;3.73;;;17.10;99.90;;;;;;5025176;28;20295;-48
2023/06/02 08:24:38;;;;;;;9.17;3.93;;;17.40;99.90;;;;;;5029347;28;20298;-46
2023/06/02 08:27:07;;;;;;;6.17;3.60;;;17.40;99.90;;;;;;5024892;28;20251;-49
2023/06/02 08:29:35;;;;;;;6.23;2.97;;;17.40;99.90;;;;;;5028135;28;20244;-47
2023/06/02 08:32:03;;;;;;;8.80;3.50;;;17.40;99.90;;;;;;5041804;28;20238;-47
2023/06/02 08:34:32;;;;;;;7.83;3.30;;;17.50;99.90;;;;;;5040182;28;20233;-47
2023/06/02 08:37:02;;;;;;;7.17;3.10;;;17.90;99.90;;;;;;5043771;28;20707;-48
2023/06/02 08:39:31;;;;;;;7.63;3.47;;;18.10;99.90;;;;;;5025538;28;20760;-49
2023/06/02 08:42:01;;;;;;;6.53;3.27;;;18.10;99.90;;;;;;5024023;28;20226;-47
2023/06/02 08:44:30;;;;;;;5.97;3.07;;;18.10;99.90;;;;;;5022465;28;20242;-48
2023/06/02 08:46:59;;;;;;;7.80;3.07;;;18.10;99.90;;;;;;5029483;28;20314;-54
2023/06/02 08:49:29;;;;;;;9.60;3.43;;;17.90;99.90;;;;;;5035933;28;20226;-55
2023/06/02 08:52:07;;;;;;;7.30;3.30;;;17.70;99.90;;;;;;5041818;28;20259;-56
2023/06/02 08:54:36;;;;;;;6.73;3.60;;;17.50;99.90;;;;;;5037598;28;20225;-53
2023/06/02 08:57:05;;;;;;;5.73;3.03;;;17.20;99.90;;;;;;5039499;28;20312;-56
2023/06/02 08:59:33;;;;;;;10.07;3.40;;;17.00;99.90;;;;;;5036530;28;20653;-55
2023/06/02 09:02:01;;;;;;;6.67;2.77;;;16.90;99.90;;;;;;5037404;28;20274;-57
2023/06/02 09:04:30;;;;;;;8.20;3.23;;;16.80;99.90;;;;;;5040946;28;20566;-56
2023/06/02 09:07:20;;;;;;;7.03;2.70;;;16.80;99.90;;;;;;5041059;28;20228;-52
2023/06/02 09:09:51;;;;;;;7.33;2.70;;;16.70;99.90;;;;;;5040536;28;20300;-52
2023/06/02 09:12:19;;;;;;;6.23;2.67;;;16.60;99.90;;;;;;5036071;28;20227;-51
2023/06/02 09:14:49;;;;;;;8.90;2.80;;;16.40;99.90;;;;;;5040310;28;20702;-51
2023/06/02 09:17:27;;;;;;;5.03;2.70;;;16.30;99.90;;;;;;5047904;28;20268;-54
2023/06/02 09:19:58;;;;;;;6.60;3.03;;;16.20;99.90;;;;;;5040585;28;20240;-54
2023/06/02 09:22:27;;;;;;;6.03;3.67;;;16.00;99.90;;;;;;5040367;28;20249;-54
2023/06/02 09:24:56;;;;;;;7.07;3.63;;;16.00;99.90;;;;;;5039468;28;20245;-51
2023/06/02 09:27:26;;;;;;;8.77;3.53;;;16.00;99.90;;;;;;5046427;28;20473;-56
2023/06/02 09:30:00;;;;;;;8.60;3.63;;;16.10;99.90;;;;;;5046270;28;20687;-57
2023/06/02 09:32:28;;;;;;;7.40;4.07;;;16.20;99.90;;;;;;5041394;28;20322;-52
2023/06/02 09:34:57;;;;;;;6.13;3.10;;;16.30;99.90;;;;;;5042989;28;20841;-53
2023/06/02 09:37:26;;;;;;;7.23;3.50;;;16.60;99.90;;;;;;5044363;28;20729;-55
2023/06/02 09:39:57;;;;;;;7.33;3.50;;;16.80;99.90;;;;;;5046470;28;20873;-57
2023/06/02 09:42:25;;;;;;;9.67;3.50;;;17.30;99.90;;;;;;5039813;28;20333;-55
2023/06/02 09:45:03;;;;;;;6.43;3.23;;;18.20;99.90;;;;;;5042668;28;20227;-57
2023/06/02 09:47:38;;;;;;;7.13;3.23;;;18.30;99.90;;;;;;5042732;28;20783;-54
2023/06/02 09:50:08;;;;;;;8.33;3.70;;;18.50;99.90;;;;;;5043801;28;20786;-54
2023/06/02 09:52:37;;;;;;;6.87;3.07;;;18.50;99.90;;;;;;5041990;28;20244;-56
2023/06/02 09:55:08;;;;;;;5.50;3.03;;;18.30;99.90;;;;;;5045000;28;20226;-54
2023/06/02 09:57:37;;;;;;;5.30;2.90;;;19.00;99.90;;;;;;5043368;28;20251;-50
2023/06/02 10:00:11;;;;;;;6.00;2.97;;;18.90;99.90;;;;;;5042822;28;20253;-52
2023/06/02 10:02:39;;;;;;;4.20;2.63;;;18.50;99.90;;;;;;5040571;28;20332;-56
2023/06/02 10:05:08;;;;;;;5.00;2.60;;;18.20;99.90;;;;;;5041013;28;20244;-56
2023/06/02 10:07:50;;;;;;;6.57;2.10;;;18.00;99.90;;;;;;5043594;28;20225;-56
2023/06/02 10:10:26;;;;;;;8.73;2.53;;;17.50;99.90;;;;;;5040627;28;21707;-56
2023/06/02 10:13:10;;;;;;;4.67;1.83;;;17.20;99.90;;;;;;5044560;28;20234;-57
2023/06/02 10:15:50;;;;;;;5.07;2.13;;;17.00;99.90;;;;;;5042516;28;20225;-56
2023/06/02 10:18:55;;;;;;;4.67;2.30;;;17.10;99.90;;;;;;5040101;28;20238;-51
2023/06/02 10:21:33;;;;;;;5.43;2.33;;;17.20;99.90;;;;;;5044305;28;20809;-55
2023/06/02 10:24:11;;;;;;;4.60;2.27;;;17.50;99.90;;;;;;5042682;28;20231;-55
2023/06/02 10:26:56;;;;;;;8.03;2.20;;;17.70;99.90;;;;;;5037949;28;20655;-50
2023/06/02 10:29:25;;;;;;;5.17;2.03;;;18.10;99.90;;;;;;5042261;28;20247;-57
2023/06/02 10:31:53;;;;;;;3.43;2.10;;;19.00;99.90;;;;;;5040535;28;20257;-56
2023/06/02 10:34:38;;;;;;;3.23;1.90;;;19.90;99.90;;;;;;5041025;28;20313;-56
2023/06/02 10:37:15;;;;;;;5.10;2.20;;;19.50;99.90;;;;;;5042440;28;20226;-55
2023/06/02 10:39:52;;;;;;;3.50;1.90;;;19.00;99.90;;;;;;5041171;28;20241;-56
2023/06/02 10:42:22;;;;;;;3.87;1.90;;;18.70;99.90;;;;;;5044706;28;20230;-53
2023/06/02 10:44:51;;;;;;;3.63;2.30;;;18.50;99.90;;;;;;5046498;28;20230;-56
2023/06/02 10:47:36;;;;;;;5.30;2.30;;;19.00;99.90;;;;;;5043683;28;20643;-53
2023/06/02 10:50:10;;;;;;;3.70;2.00;;;19.20;99.90;;;;;;5045303;28;20235;-56
2023/06/02 10:53:09;;;;;;;3.27;2.20;;;18.90;99.90;;;;;;5041445;28;21740;-53
2023/06/02 10:55:41;;;;;;;6.63;1.97;;;18.70;99.90;;;;;;5039940;28;20229;-51
2023/06/02 10:58:12;;;;;;;3.10;1.70;;;18.40;99.90;;;;;;5043642;28;20736;-56
2023/06/02 11:00:46;;;;;;;3.03;1.80;;;18.20;99.90;;;;;;5039682;28;20238;-55
2023/06/02 11:03:34;;;;;;;3.17;1.43;;;18.10;99.90;;;;;;5039326;28;20226;-56
2023/06/02 11:06:25;;;;;;;4.07;1.97;;;18.20;99.90;;;;;;5045695;28;20234;-56
2023/06/02 11:08:54;;;;;;;3.13;1.90;;;18.10;99.90;;;;;;5038244;28;20677;-57
2023/06/02 11:11:53;;;;;;;6.17;2.20;;;18.10;99.90;;;;;;5038652;28;20240;-54
2023/06/02 11:14:23;;;;;;;2.80;1.77;;;18.10;99.90;;;;;;5039941;28;20219;-54
2023/06/02 11:17:28;;;;;;;3.60;1.80;;;18.20;99.90;;;;;;5042133;28;20223;-56
2023/06/02 11:19:57;;;;;;;4.33;1.90;;;18.20;99.90;;;;;;5042890;28;20306;-57
2023/06/02 11:22:26;;;;;;;5.00;2.10;;;18.40;99.90;;;;;;5036745;28;20250;-56
2023/06/02 11:24:56;;;;;;;8.40;2.03;;;18.70;99.90;;;;;;5040184;28;20233;-57
2023/06/02 11:27:40;;;;;;;4.80;1.90;;;19.30;99.90;;;;;;5042348;28;20253;-57
2023/06/02 11:30:18;;;;;;;4.77;1.70;;;19.20;99.90;;;;;;5043605;28;20310;-55
2023/06/02 11:32:49;;;;;;;4.37;1.77;;;19.30;99.90;;;;;;5041388;28;20231;-54
2023/06/02 11:35:20;;;;;;;2.17;1.60;;;19.10;99.90;;;;;;5041405;28;20610;-51
2023/06/02 11:38:02;;;;;;;3.47;2.00;;;19.30;99.90;;;;;;5031599;28;20757;-56
2023/06/02 11:40:31;;;;;;;3.53;1.67;;;19.80;99.90;;;;;;5030626;28;20355;-57
2023/06/02 11:43:00;;;;;;;3.03;1.70;;;20.10;99.90;;;;;;5025721;28;20219;-52
2023/06/02 11:45:29;;;;;;;3.03;1.80;;;19.90;99.90;;;;;;5037735;28;20329;-56
2023/06/02 11:48:02;;;;;;;3.43;1.93;;;19.60;99.90;;;;;;5031790;28;20241;-57
2023/06/02 11:50:30;;;;;;;2.73;1.50;;;19.40;99.90;;;;;;5026523;28;20243;-57
2023/06/02 11:52:59;;;;;;;4.03;1.70;;;20.10;99.90;;;;;;5024340;28;20730;-55
2023/06/02 11:55:28;;;;;;;3.43;1.67;;;20.80;99.90;;;;;;5034935;28;20237;-56
2023/06/02 11:58:22;;;;;;;4.47;1.60;;;20.70;99.90;;;;;;5039309;28;20780;-57
2023/06/02 12:00:51;;;;;;;3.27;1.70;;;20.50;99.90;;;;;;5037248;28;20243;-57
2023/06/02 12:03:19;;;;;;;3.67;1.60;;;20.30;99.90;;;;;;5039265;28;20223;-55
2023/06/02 12:05:49;;;;;;;2.83;1.60;;;19.80;99.90;;;;;;5039827;28;20258;-55
2023/06/02 12:08:22;;;;;;;1.53;1.33;;;19.60;99.90;;;;;;5038400;28;20662;-51
2023/06/02 12:10:51;;;;;;;2.80;1.40;;;19.30;99.90;;;;;;5041575;28;20244;-55
2023/06/02 12:13:28;;;;;;;3.47;1.50;;;19.40;99.90;;;;;;5035021;28;20224;-53
2023/06/02 12:15:58;;;;;;;5.43;2.10;;;19.40;99.90;;;;;;5028452;28;20316;-53
2023/06/02 12:18:30;;;;;;;2.73;1.40;;;19.30;99.90;;;;;;5026112;28;20247;-50
2023/06/02 12:20:59;;;;;;;4.20;1.70;;;19.30;99.90;;;;;;5030271;28;20254;-51
2023/06/02 12:23:44;;;;;;;2.53;1.50;;;19.30;99.90;;;;;;5030679;28;20569;-57
2023/06/02 12:26:12;;;;;;;3.77;1.60;;;19.10;99.90;;;;;;5039814;28;20254;-55
2023/06/02 12:28:41;;;;;;;3.77;1.50;;;18.90;99.90;;;;;;5040674;28;20238;-56
2023/06/02 12:31:09;;;;;;;4.87;1.67;;;19.20;99.90;;;;;;5041656;28;20282;-54
2023/06/02 12:33:38;;;;;;;3.57;1.63;;;19.50;99.90;;;;;;5035967;28;20239;-52
2023/06/02 12:36:07;;;;;;;5.70;1.53;;;19.90;99.90;;;;;;5041234;28;20229;-56
2023/06/02 12:38:35;;;;;;;2.97;1.73;;;20.20;99.90;;;;;;5039486;28;20647;-50
2023/06/02 12:41:10;;;;;;;4.10;1.80;;;20.10;99.90;;;;;;5046497;28;20276;-57
2023/06/02 12:43:39;;;;;;;3.93;1.50;;;19.80;99.90;;;;;;5039648;28;20265;-54
2023/06/02 12:46:08;;;;;;;2.17;1.17;;;19.60;99.90;;;;;;5040039;28;20238;-54
2023/06/02 12:48:36;;;;;;;6.43;1.60;;;19.40;99.90;;;;;;5040566;28;20248;-51
2023/06/02 12:51:06;;;;;;;4.70;1.40;;;19.30;99.90;;;;;;5046428;28;20317;-55
2023/06/02 12:53:36;;;;;;;4.53;1.60;;;19.20;99.90;;;;;;5046089;28;20287;-52
2023/06/02 12:56:04;;;;;;;2.47;1.50;;;19.30;99.90;;;;;;5047179;28;20677;-51
2023/06/02 12:58:33;;;;;;;4.40;1.50;;;19.30;99.90;;;;;;5045434;28;21480;-57